Wetterdaten: Woche 17.04.17 - 23.04.17 (KW16)
Datum Zeit Temperatur Luftfeuchte Luftdruck Niederschlag Windrichtung Sonnenschein Solar Wind
17.04.2017 00:00 4,3 C 95 % 1020,2 hPa 0,0 l/m SW 0,00 h 0 W/m 7,9 km/h (2 Bft)
17.04.2017 01:00 4,4 C 94 % 1020,0 hPa 0,0 l/m SW 0,00 h 0 W/m 9,3 km/h (2 Bft)
17.04.2017 02:00 4,4 C 93 % 1019,6 hPa 0,0 l/m SW 0,00 h 0 W/m 12,9 km/h (3 Bft)
17.04.2017 03:00 4,5 C 94 % 1019,0 hPa 0,6 l/m W-SW 0,00 h 0 W/m 10,1 km/h (2 Bft)
17.04.2017 04:00 4,4 C 96 % 1018,5 hPa 0,0 l/m W-SW 0,00 h 0 W/m 7,9 km/h (2 Bft)
17.04.2017 05:00 4,4 C 97 % 1018,1 hPa 0,4 l/m SW 0,00 h 0 W/m 11,4 km/h (2 Bft)
17.04.2017 06:00 4,5 C 97 % 1017,6 hPa 0,0 l/m SW 0,00 h 7 W/m 14,4 km/h (3 Bft)
17.04.2017 07:00 4,4 C 97 % 1017,2 hPa 0,0 l/m SW 0,00 h 35 W/m 11,7 km/h (2 Bft)
17.04.2017 08:00 4,8 C 98 % 1016,8 hPa 0,0 l/m SW 0,00 h 130 W/m 12,1 km/h (2 Bft)
17.04.2017 09:00 6,3 C 96 % 1016,3 hPa 0,0 l/m SW 0,33 h 256 W/m 16,9 km/h (3 Bft)
17.04.2017 10:00 6,8 C 90 % 1015,8 hPa 0,0 l/m W-SW 0,00 h 127 W/m 18,8 km/h (3 Bft)
17.04.2017 11:00 6,8 C 89 % 1015,3 hPa 0,0 l/m W-SW 0,00 h 127 W/m 17,2 km/h (3 Bft)
17.04.2017 12:00 7,5 C 84 % 1014,7 hPa 0,0 l/m W 0,00 h 170 W/m 22,8 km/h (4 Bft)
17.04.2017 13:00 7,6 C 84 % 1014,2 hPa 0,4 l/m W-SW 0,00 h 177 W/m 22,7 km/h (4 Bft)
17.04.2017 14:00 7,8 C 86 % 1013,6 hPa 0,4 l/m W-SW 0,08 h 231 W/m 26,0 km/h (4 Bft)
17.04.2017 15:00 9,0 C 81 % 1013,0 hPa 0,0 l/m W 0,50 h 403 W/m 30,7 km/h (5 Bft)
17.04.2017 16:00 8,9 C 77 % 1012,8 hPa 0,2 l/m W-SW 0,00 h 120 W/m 28,7 km/h (4 Bft)
17.04.2017 17:00 5,7 C 90 % 1013,7 hPa 2,0 l/m W-NW 0,00 h 80 W/m 21,6 km/h (4 Bft)
17.04.2017 18:00 5,6 C 93 % 1014,3 hPa 1,0 l/m W-NW 0,00 h 54 W/m 17,0 km/h (3 Bft)
17.04.2017 19:00 4,7 C 94 % 1015,2 hPa 0,0 l/m N-NW 0,00 h 23 W/m 12,6 km/h (3 Bft)
17.04.2017 20:00 4,2 C 94 % 1016,1 hPa 0,0 l/m N 0,00 h 8 W/m 11,4 km/h (2 Bft)
17.04.2017 21:00 3,3 C 94 % 1017,1 hPa 0,0 l/m N-NW 0,00 h 0 W/m 4,8 km/h (1 Bft)
17.04.2017 22:00 2,4 C 94 % 1017,8 hPa 0,0 l/m N-NW 0,00 h 0 W/m 2,4 km/h (1 Bft)
17.04.2017 23:00 1,7 C 95 % 1017,9 hPa 0,0 l/m N-NW 0,00 h 0 W/m 2,5 km/h (1 Bft)
18.04.2017 00:00 1,3 C 96 % 1017,9 hPa 0,0 l/m N 0,00 h 0 W/m 0,0 km/h (0 Bft)
18.04.2017 01:00 1,1 C 97 % 1017,7 hPa 0,0 l/m N-NW 0,00 h 0 W/m 0,8 km/h (0 Bft)
18.04.2017 02:00 1,0 C 97 % 1017,1 hPa 0,0 l/m NW 0,00 h 0 W/m 2,3 km/h (1 Bft)
18.04.2017 03:00 1,8 C 96 % 1016,9 hPa 0,0 l/m N 0,00 h 0 W/m 10,2 km/h (2 Bft)
18.04.2017 04:00 1,0 C 96 % 1017,1 hPa 0,6 l/m N-NW 0,00 h 0 W/m 5,8 km/h (1 Bft)
18.04.2017 05:00 0,8 C 97 % 1017,1 hPa 0,2 l/m NW 0,00 h 0 W/m 7,4 km/h (2 Bft)
18.04.2017 06:00 0,7 C 97 % 1017,2 hPa 0,0 l/m NW 0,00 h 11 W/m 12,5 km/h (3 Bft)
18.04.2017 07:00 0,9 C 95 % 1017,7 hPa 0,0 l/m NW 0,83 h 122 W/m 15,6 km/h (3 Bft)
18.04.2017 08:00 1,5 C 91 % 1018,5 hPa 0,0 l/m NW 0,67 h 260 W/m 14,5 km/h (3 Bft)
18.04.2017 09:00 1,8 C 88 % 1019,2 hPa 0,0 l/m NW 0,17 h 220 W/m 15,4 km/h (3 Bft)
18.04.2017 10:00 2,4 C 84 % 1019,7 hPa 0,0 l/m W-NW 0,17 h 289 W/m 18,4 km/h (3 Bft)
18.04.2017 11:00 1,5 C 89 % 1020,4 hPa 0,4 l/m W-NW 0,00 h 131 W/m 14,9 km/h (3 Bft)
18.04.2017 12:00 2,0 C 93 % 1020,8 hPa 0,0 l/m NW 0,25 h 375 W/m 19,8 km/h (4 Bft)
18.04.2017 13:00 2,0 C 90 % 1021,2 hPa 0,2 l/m N-NO 0,17 h 327 W/m 19,4 km/h (3 Bft)
18.04.2017 14:00 2,4 C 92 % 1021,5 hPa 0,0 l/m N-NW 0,25 h 350 W/m 14,5 km/h (3 Bft)
18.04.2017 15:00 3,9 C 84 % 1021,5 hPa 0,2 l/m N-NW 0,17 h 326 W/m 18,9 km/h (3 Bft)
18.04.2017 16:00 4,7 C 76 % 1021,7 hPa 0,0 l/m N-NO 0,58 h 424 W/m 18,4 km/h (3 Bft)
18.04.2017 17:00 4,8 C 73 % 1021,9 hPa 0,0 l/m N-NO 0,67 h 333 W/m 16,5 km/h (3 Bft)
18.04.2017 18:00 4,7 C 73 % 1022,2 hPa 0,0 l/m N-NO 0,58 h 162 W/m 14,1 km/h (3 Bft)
18.04.2017 19:00 4,0 C 74 % 1022,6 hPa 0,0 l/m N-NO 0,33 h 41 W/m 11,6 km/h (2 Bft)
18.04.2017 20:00 2,5 C 82 % 1023,3 hPa 0,0 l/m N-NW 0,17 h 11 W/m 10,7 km/h (2 Bft)
18.04.2017 21:00 1,5 C 89 % 1024,1 hPa 0,0 l/m N-NO 0,00 h 0 W/m 4,4 km/h (1 Bft)
18.04.2017 22:00 0,9 C 92 % 1024,4 hPa 0,0 l/m N 0,00 h 0 W/m 3,5 km/h (1 Bft)
18.04.2017 23:00 1,1 C 93 % 1024,6 hPa 0,0 l/m N-NW 0,00 h 0 W/m 5,5 km/h (1 Bft)
19.04.2017 00:00 1,3 C 93 % 1024,6 hPa 0,0 l/m N-NW 0,00 h 0 W/m 7,6 km/h (2 Bft)
19.04.2017 01:00 1,2 C 93 % 1024,6 hPa 0,0 l/m N-NW 0,00 h 0 W/m 9,3 km/h (2 Bft)
19.04.2017 02:00 1,2 C 94 % 1024,5 hPa 0,0 l/m N-NW 0,00 h 0 W/m 6,7 km/h (2 Bft)
19.04.2017 03:00 1,1 C 94 % 1024,4 hPa 0,0 l/m N-NW 0,00 h 0 W/m 9,0 km/h (2 Bft)
19.04.2017 04:00 0,8 C 95 % 1024,7 hPa 1,2 l/m NO 0,00 h 0 W/m 7,1 km/h (2 Bft)
19.04.2017 05:00 0,7 C 96 % 1024,9 hPa 0,0 l/m N-NO 0,00 h 0 W/m 5,1 km/h (1 Bft)
19.04.2017 06:00 0,7 C 96 % 1025,2 hPa 0,0 l/m NO 0,00 h 9 W/m 10,2 km/h (2 Bft)
19.04.2017 07:00 0,7 C 95 % 1025,6 hPa 0,0 l/m NO 0,00 h 14 W/m 8,4 km/h (2 Bft)
19.04.2017 08:00 0,8 C 95 % 1026,1 hPa 0,6 l/m NO 0,00 h 83 W/m 13,2 km/h (3 Bft)
19.04.2017 09:00 1,0 C 94 % 1026,4 hPa 0,6 l/m O-NO 0,17 h 160 W/m 9,3 km/h (2 Bft)
19.04.2017 10:00 1,4 C 93 % 1026,6 hPa 0,4 l/m O-NO 0,33 h 340 W/m 10,5 km/h (2 Bft)
19.04.2017 11:00 0,8 C 93 % 1027,3 hPa 0,2 l/m N-NO 0,00 h 57 W/m 14,2 km/h (3 Bft)
19.04.2017 12:00 0,2 C 96 % 1027,8 hPa 3,6 l/m O-NO 0,08 h 187 W/m 12,4 km/h (3 Bft)
19.04.2017 13:00 1,4 C 95 % 1028,1 hPa 1,4 l/m O-NO 0,67 h 536 W/m 13,0 km/h (3 Bft)
19.04.2017 14:00 2,8 C 89 % 1027,9 hPa 0,0 l/m N-NO 0,92 h 808 W/m 17,2 km/h (3 Bft)
19.04.2017 15:00 2,1 C 91 % 1028,1 hPa 0,4 l/m O-NO 0,33 h 384 W/m 16,8 km/h (3 Bft)
19.04.2017 16:00 1,7 C 91 % 1028,2 hPa 0,6 l/m NO 0,08 h 278 W/m 14,8 km/h (3 Bft)
19.04.2017 17:00 3,3 C 86 % 1028,2 hPa 0,0 l/m N-NO 0,58 h 284 W/m 15,2 km/h (3 Bft)
19.04.2017 18:00 2,1 C 87 % 1028,9 hPa 0,0 l/m O-NO 0,00 h 75 W/m 16,5 km/h (3 Bft)
19.04.2017 19:00 1,7 C 83 % 1029,5 hPa 0,0 l/m NO 0,00 h 43 W/m 12,5 km/h (3 Bft)
19.04.2017 20:00 1,1 C 80 % 1030,5 hPa 0,0 l/m O-NO 0,00 h 7 W/m 16,1 km/h (3 Bft)
19.04.2017 21:00 0,5 C 78 % 1031,3 hPa 0,0 l/m NO 0,00 h 0 W/m 13,0 km/h (3 Bft)
19.04.2017 22:00 -0,6 C 82 % 1031,6 hPa 0,0 l/m NO 0,00 h 0 W/m 5,2 km/h (1 Bft)
19.04.2017 23:00 -1,2 C 85 % 1031,8 hPa 0,0 l/m NO 0,00 h 0 W/m 5,1 km/h (1 Bft)
20.04.2017 00:00 -0,7 C 83 % 1031,9 hPa 0,0 l/m NO 0,00 h 0 W/m 8,8 km/h (2 Bft)
20.04.2017 01:00 -0,9 C 81 % 1031,7 hPa 0,0 l/m NO 0,00 h 0 W/m 7,9 km/h (2 Bft)
20.04.2017 02:00 -1,7 C 84 % 1031,7 hPa 0,0 l/m NO 0,00 h 0 W/m 3,9 km/h (1 Bft)
20.04.2017 03:00 -2,1 C 86 % 1031,6 hPa 0,0 l/m NO 0,00 h 0 W/m 6,0 km/h (2 Bft)
20.04.2017 04:00 -2,5 C 88 % 1031,6 hPa 0,0 l/m NO 0,00 h 0 W/m 5,5 km/h (1 Bft)
20.04.2017 05:00 -3,3 C 90 % 1031,8 hPa 0,0 l/m N 0,00 h 0 W/m 0,0 km/h (0 Bft)
20.04.2017 06:00 -3,5 C 92 % 1032,2 hPa 0,0 l/m N 0,42 h 23 W/m 0,7 km/h (0 Bft)
20.04.2017 07:00 -2,3 C 91 % 1032,8 hPa 0,0 l/m NO 0,83 h 121 W/m 5,5 km/h (1 Bft)
20.04.2017 08:00 -0,8 C 88 % 1033,3 hPa 0,0 l/m O-NO 0,92 h 293 W/m 11,7 km/h (2 Bft)
20.04.2017 09:00 0,6 C 85 % 1033,5 hPa 0,0 l/m O-NO 0,92 h 459 W/m 12,0 km/h (2 Bft)
20.04.2017 10:00 2,0 C 78 % 1033,8 hPa 0,0 l/m O-NO 0,67 h 557 W/m 13,2 km/h (3 Bft)
20.04.2017 11:00 3,1 C 68 % 1033,9 hPa 0,0 l/m O 0,75 h 585 W/m 14,1 km/h (3 Bft)
20.04.2017 12:00 3,7 C 61 % 1034,0 hPa 0,0 l/m NO 0,75 h 471 W/m 13,9 km/h (3 Bft)
20.04.2017 13:00 4,0 C 59 % 1033,8 hPa 0,0 l/m NO 0,25 h 456 W/m 12,8 km/h (3 Bft)
20.04.2017 14:00 4,9 C 55 % 1033,6 hPa 0,0 l/m O-SO 0,50 h 564 W/m 11,4 km/h (2 Bft)
20.04.2017 15:00 5,5 C 52 % 1033,2 hPa 0,0 l/m NO 0,67 h 616 W/m 11,0 km/h (2 Bft)
20.04.2017 16:00 6,3 C 47 % 1032,8 hPa 0,0 l/m O-SO 0,75 h 529 W/m 13,6 km/h (3 Bft)
20.04.2017 17:00 6,0 C 47 % 1032,5 hPa 0,0 l/m O 0,42 h 258 W/m 7,6 km/h (2 Bft)
20.04.2017 18:00 5,8 C 48 % 1032,4 hPa 0,0 l/m O-SO 0,50 h 127 W/m 6,9 km/h (2 Bft)
20.04.2017 19:00 5,3 C 52 % 1032,6 hPa 0,0 l/m O 0,17 h 54 W/m 3,1 km/h (1 Bft)
20.04.2017 20:00 2,4 C 67 % 1032,9 hPa 0,0 l/m N 0,00 h 8 W/m 0,0 km/h (0 Bft)
20.04.2017 21:00 0,7 C 77 % 1033,5 hPa 0,0 l/m N 0,00 h 0 W/m 0,0 km/h (0 Bft)
20.04.2017 22:00 0,3 C 81 % 1033,6 hPa 0,0 l/m N 0,00 h 0 W/m 0,0 km/h (0 Bft)
20.04.2017 23:00 -0,6 C 83 % 1033,5 hPa 0,0 l/m N 0,00 h 0 W/m 0,0 km/h (0 Bft)
21.04.2017 00:00 -1,2 C 86 % 1033,4 hPa 0,0 l/m N 0,00 h 0 W/m 0,0 km/h (0 Bft)
21.04.2017 01:00 -1,9 C 87 % 1033,2 hPa 0,0 l/m N 0,00 h 0 W/m 0,0 km/h (0 Bft)
21.04.2017 02:00 -2,4 C 88 % 1032,5 hPa 0,0 l/m N 0,00 h 0 W/m 0,0 km/h (0 Bft)
21.04.2017 03:00 -2,8 C 90 % 1032,1 hPa 0,0 l/m N 0,00 h 0 W/m 0,0 km/h (0 Bft)
21.04.2017 04:00 -3,1 C 91 % 1031,9 hPa 0,0 l/m N 0,00 h 0 W/m 0,0 km/h (0 Bft)
21.04.2017 05:00 -3,3 C 91 % 1031,7 hPa 0,0 l/m N 0,00 h 0 W/m 0,0 km/h (0 Bft)
21.04.2017 06:00 -3,8 C 91 % 1031,6 hPa 0,0 l/m N 0,17 h 19 W/m 0,0 km/h (0 Bft)
21.04.2017 07:00 -2,5 C 91 % 1032,0 hPa 0,0 l/m N 0,75 h 127 W/m 0,0 km/h (0 Bft)
21.04.2017 08:00 0,0 C 84 % 1032,1 hPa 0,0 l/m N 0,92 h 326 W/m 0,1 km/h (0 Bft)
21.04.2017 09:00 3,4 C 72 % 1032,1 hPa 0,0 l/m O 0,92 h 499 W/m 7,8 km/h (2 Bft)
21.04.2017 10:00 5,5 C 57 % 1032,2 hPa 0,0 l/m S-SW 1,00 h 451 W/m 7,1 km/h (2 Bft)
21.04.2017 11:00 6,7 C 53 % 1032,1 hPa 0,0 l/m S-SW 1,00 h 532 W/m 7,4 km/h (2 Bft)
21.04.2017 12:00 8,0 C 50 % 1031,8 hPa 0,0 l/m N 1,00 h 740 W/m 6,1 km/h (2 Bft)
21.04.2017 13:00 9,5 C 44 % 1031,0 hPa 0,0 l/m W-SW 1,00 h 819 W/m 7,5 km/h (2 Bft)
21.04.2017 14:00 10,7 C 43 % 1030,2 hPa 0,0 l/m W-SW 1,00 h 751 W/m 7,4 km/h (2 Bft)
21.04.2017 15:00 12,0 C 39 % 1029,3 hPa 0,0 l/m W 1,00 h 680 W/m 8,2 km/h (2 Bft)
21.04.2017 16:00 12,5 C 38 % 1028,3 hPa 0,0 l/m W 1,00 h 551 W/m 12,8 km/h (3 Bft)
21.04.2017 17:00 12,8 C 36 % 1027,6 hPa 0,0 l/m SW 1,00 h 392 W/m 13,8 km/h (3 Bft)
21.04.2017 18:00 12,3 C 41 % 1027,3 hPa 0,0 l/m SW 1,00 h 207 W/m 17,3 km/h (3 Bft)
21.04.2017 19:00 10,4 C 39 % 1027,1 hPa 0,0 l/m SW 0,00 h 52 W/m 14,0 km/h (3 Bft)
21.04.2017 20:00 8,5 C 34 % 1027,2 hPa 0,0 l/m SW 0,08 h 12 W/m 3,6 km/h (1 Bft)
21.04.2017 21:00 6,3 C 41 % 1027,2 hPa 0,0 l/m N 0,00 h 0 W/m 0,0 km/h (0 Bft)
21.04.2017 22:00 4,9 C 45 % 1027,2 hPa 0,0 l/m N 0,00 h 0 W/m 0,0 km/h (0 Bft)
21.04.2017 23:00 3,2 C 57 % 1026,8 hPa 0,0 l/m SW 0,00 h 0 W/m 0,7 km/h (0 Bft)
22.04.2017 00:00 2,2 C 62 % 1026,6 hPa 0,0 l/m N 0,00 h 0 W/m 0,0 km/h (0 Bft)
22.04.2017 01:00 1,2 C 70 % 1026,3 hPa 0,0 l/m N 0,00 h 0 W/m 0,0 km/h (0 Bft)
22.04.2017 02:00 0,5 C 73 % 1025,8 hPa 0,0 l/m N 0,00 h 0 W/m 0,0 km/h (0 Bft)
22.04.2017 03:00 -0,2 C 76 % 1025,3 hPa 0,0 l/m N 0,00 h 0 W/m 0,3 km/h (0 Bft)
22.04.2017 04:00 -0,6 C 81 % 1024,8 hPa 0,0 l/m N 0,00 h 0 W/m 0,0 km/h (0 Bft)
22.04.2017 05:00 -0,8 C 83 % 1024,4 hPa 0,0 l/m N 0,00 h 0 W/m 0,0 km/h (0 Bft)
22.04.2017 06:00 -0,8 C 85 % 1024,2 hPa 0,0 l/m N 0,25 h 21 W/m 0,0 km/h (0 Bft)
22.04.2017 07:00 0,8 C 84 % 1024,1 hPa 0,0 l/m N 0,67 h 110 W/m 0,1 km/h (0 Bft)
22.04.2017 08:00 4,9 C 75 % 1024,1 hPa 0,0 l/m S-SW 1,00 h 292 W/m 7,0 km/h (2 Bft)
22.04.2017 09:00 8,6 C 66 % 1023,9 hPa 0,0 l/m W 0,83 h 396 W/m 12,9 km/h (3 Bft)
22.04.2017 10:00 10,8 C 66 % 1023,5 hPa 0,0 l/m W-NW 0,83 h 518 W/m 19,6 km/h (3 Bft)
22.04.2017 11:00 10,7 C 64 % 1023,4 hPa 0,0 l/m NW 0,17 h 259 W/m 20,6 km/h (4 Bft)
22.04.2017 12:00 9,7 C 66 % 1023,2 hPa 0,0 l/m W-NW 0,00 h 197 W/m 16,6 km/h (3 Bft)
22.04.2017 13:00 10,3 C 64 % 1022,6 hPa 0,0 l/m W-NW 0,00 h 259 W/m 15,8 km/h (3 Bft)
22.04.2017 14:00 10,3 C 63 % 1021,9 hPa 0,0 l/m NW 0,00 h 233 W/m 16,1 km/h (3 Bft)
22.04.2017 15:00 10,6 C 62 % 1021,4 hPa 0,0 l/m W-NW 0,00 h 263 W/m 16,5 km/h (3 Bft)
22.04.2017 16:00 11,0 C 60 % 1020,8 hPa 0,0 l/m W-NW 0,00 h 227 W/m 15,3 km/h (3 Bft)
22.04.2017 17:00 10,6 C 62 % 1020,6 hPa 0,0 l/m NW 0,00 h 62 W/m 9,8 km/h (2 Bft)
22.04.2017 18:00 10,0 C 67 % 1020,6 hPa 0,0 l/m N 0,00 h 38 W/m 9,0 km/h (2 Bft)
22.04.2017 19:00 8,8 C 77 % 1020,6 hPa 0,0 l/m N-NW 0,00 h 10 W/m 11,1 km/h (2 Bft)
22.04.2017 20:00 7,7 C 83 % 1020,6 hPa 0,0 l/m N 0,00 h 6 W/m 16,4 km/h (3 Bft)
22.04.2017 21:00 6,0 C 84 % 1021,3 hPa 0,0 l/m N-NO 0,00 h 0 W/m 19,7 km/h (3 Bft)
22.04.2017 22:00 5,5 C 83 % 1021,8 hPa 0,0 l/m N 0,00 h 0 W/m 16,8 km/h (3 Bft)
22.04.2017 23:00 5,1 C 82 % 1022,1 hPa 0,0 l/m N-NW 0,00 h 0 W/m 6,0 km/h (2 Bft)
23.04.2017 00:00 5,0 C 81 % 1022,0 hPa 0,0 l/m N 0,00 h 0 W/m 0,0 km/h (0 Bft)
23.04.2017 01:00 4,7 C 81 % 1021,9 hPa 0,0 l/m N 0,00 h 0 W/m 0,0 km/h (0 Bft)
23.04.2017 02:00 4,1 C 84 % 1021,8 hPa 0,0 l/m N 0,00 h 0 W/m 0,0 km/h (0 Bft)
23.04.2017 03:00 4,1 C 85 % 1021,8 hPa 0,0 l/m N 0,00 h 0 W/m 0,0 km/h (0 Bft)
23.04.2017 04:00 4,0 C 86 % 1021,8 hPa 0,0 l/m N 0,00 h 0 W/m 0,0 km/h (0 Bft)
23.04.2017 05:00 4,0 C 84 % 1021,8 hPa 0,0 l/m N 0,00 h 0 W/m 0,0 km/h (0 Bft)
23.04.2017 06:00 3,9 C 83 % 1021,9 hPa 0,0 l/m N 0,00 h 19 W/m 0,4 km/h (0 Bft)
23.04.2017 07:00 3,8 C 87 % 1022,2 hPa 0,0 l/m N 0,00 h 74 W/m 0,0 km/h (0 Bft)
23.04.2017 08:00 4,7 C 81 % 1022,6 hPa 0,0 l/m N 0,00 h 138 W/m 2,4 km/h (1 Bft)
23.04.2017 09:00 5,2 C 79 % 1022,7 hPa 0,0 l/m N-NW 0,42 h 267 W/m 9,7 km/h (2 Bft)
23.04.2017 10:00 6,1 C 74 % 1022,8 hPa 0,0 l/m N-NW 0,33 h 396 W/m 8,2 km/h (2 Bft)
23.04.2017 11:00 6,7 C 69 % 1022,7 hPa 0,0 l/m W-NW 0,08 h 365 W/m 9,5 km/h (2 Bft)
23.04.2017 12:00 7,9 C 60 % 1022,4 hPa 0,0 l/m NW 0,42 h 429 W/m 11,3 km/h (2 Bft)
23.04.2017 13:00 8,5 C 58 % 1022,1 hPa 0,0 l/m N-NW 0,25 h 398 W/m 10,1 km/h (2 Bft)
23.04.2017 14:00 9,4 C 56 % 1021,7 hPa 0,0 l/m W-NW 0,42 h 541 W/m 13,0 km/h (3 Bft)
23.04.2017 15:00 10,2 C 53 % 1021,3 hPa 0,0 l/m N-NO 0,50 h 566 W/m 12,8 km/h (3 Bft)
23.04.2017 16:00 11,0 C 49 % 1020,9 hPa 0,0 l/m N-NO 0,58 h 505 W/m 12,7 km/h (3 Bft)
23.04.2017 17:00 11,2 C 46 % 1020,9 hPa 0,0 l/m N 0,92 h 392 W/m 14,4 km/h (3 Bft)
23.04.2017 18:00 10,6 C 47 % 1020,9 hPa 0,0 l/m N-NO 0,83 h 216 W/m 14,0 km/h (3 Bft)
23.04.2017 19:00 9,5 C 48 % 1021,0 hPa 0,0 l/m NO 0,00 h 54 W/m 10,9 km/h (2 Bft)
23.04.2017 20:00 7,7 C 54 % 1021,3 hPa 0,0 l/m NO 0,08 h 11 W/m 8,3 km/h (2 Bft)
23.04.2017 21:00 6,0 C 60 % 1021,8 hPa 0,0 l/m NO 0,00 h 0 W/m 8,0 km/h (2 Bft)
23.04.2017 22:00 4,6 C 66 % 1022,0 hPa 0,0 l/m NO 0,00 h 0 W/m 3,6 km/h (1 Bft)
23.04.2017 23:00 2,7 C 75 % 1022,1 hPa 0,0 l/m NO 0,00 h 0 W/m 1,1 km/h (0 Bft)
Min-Datum _ 21.04.17 21.04.17 17.04.17 - - - - 17.04.17
_ Min-Zeit 06:30 20:20 16:40 - - - - 00:05
Minimum _ -3,9 C 33 % 1012,5 hPa - - - - 0,0 km/h (0 Bft)
Max-Datum _ 21.04.17 18.04.17 20.04.17 19.04.17 - 17.04.17 19.04.17 17.04.17
_ Max-Zeit 17:40 04:25 11:50 12:45 - 09:00 14:05 17:00
Maximum _ 13,1 C 100 % 1034,1 hPa 3,6 l/m - 0,08 h 1137 W/m 41,8 km/h
W-NW (6 Bft)
Durchschnitt _ 3,8 C 78 % 1024,6 hPa #15,6 l/m NO #38:00 h 258 W/m 9,3 km/h (2 Bft)